Time;durP1;ratioP1;P1;durP2;ratioP2;P2;SDS_P1;SDS_P2;PMS_P1;PMS_P2;Temp;Humidity;BMP_temperature;BMP_pressure;BME280_temperature;BME280_humidity;BME280_pressure;Samples;Min_cycle;Max_cycle;Signal;HPM_P1;HPM_P2
2024/01/29 00:01:59;;;;;;;0.00;0.00;;;7.80;99.90;;;;;;5063760;28;20052;-57
2024/01/29 00:04:25;;;;;;;0.00;0.00;;;7.70;99.90;;;;;;5040551;28;20081;-56
2024/01/29 00:06:50;;;;;;;0.00;0.00;;;7.70;99.90;;;;;;5063939;28;20036;-56
2024/01/29 00:09:17;;;;;;;0.00;0.00;;;7.70;99.90;;;;;;5064064;28;20017;-56
2024/01/29 00:11:43;;;;;;;0.00;0.00;;;7.70;99.90;;;;;;5060927;28;20044;-55
2024/01/29 00:14:09;;;;;;;0.00;0.00;;;7.70;99.90;;;;;;5064769;28;20029;-57
2024/01/29 00:16:34;;;;;;;0.00;0.00;;;7.70;99.90;;;;;;5061857;28;20043;-57
2024/01/29 00:19:00;;;;;;;0.00;0.00;;;7.70;99.90;;;;;;5062313;28;20115;-56
2024/01/29 00:21:26;;;;;;;0.00;0.00;;;7.70;99.90;;;;;;5064618;28;20042;-56
2024/01/29 00:23:51;;;;;;;0.00;0.00;;;7.70;99.90;;;;;;5065072;28;20027;-58
2024/01/29 00:26:17;;;;;;;0.00;0.00;;;7.70;99.90;;;;;;5059698;28;20089;-57
2024/01/29 00:28:43;;;;;;;0.00;0.00;;;7.50;99.90;;;;;;5065792;28;20101;-57
2024/01/29 00:31:09;;;;;;;0.00;0.00;;;7.50;99.90;;;;;;5060299;28;20055;-56
2024/01/29 00:33:35;;;;;;;0.00;0.00;;;7.50;99.90;;;;;;5064052;28;20024;-57
2024/01/29 00:36:01;;;;;;;0.00;0.00;;;7.50;99.90;;;;;;5066910;28;20431;-56
2024/01/29 00:38:26;;;;;;;0.00;0.00;;;7.60;99.90;;;;;;5064907;28;20139;-57
2024/01/29 00:40:52;;;;;;;0.00;0.00;;;7.60;99.90;;;;;;5062296;28;20396;-54
2024/01/29 00:43:17;;;;;;;0.00;0.00;;;7.60;99.90;;;;;;5061305;28;20428;-55
2024/01/29 00:45:43;;;;;;;0.00;0.00;;;7.50;99.90;;;;;;5063169;28;20524;-57
2024/01/29 00:48:08;;;;;;;0.00;0.00;;;7.70;99.90;;;;;;5064748;28;20024;-56
2024/01/29 00:50:34;;;;;;;0.00;0.00;;;7.50;99.90;;;;;;5064407;28;20021;-56
2024/01/29 00:53:00;;;;;;;0.00;0.00;;;7.50;99.90;;;;;;5065975;28;20036;-56
2024/01/29 00:55:25;;;;;;;0.00;0.00;;;7.50;99.90;;;;;;5066073;28;20598;-56
2024/01/29 00:57:51;;;;;;;0.00;0.00;;;7.60;99.90;;;;;;5066412;28;20112;-57
2024/01/29 01:00:17;;;;;;;0.00;0.00;;;7.60;99.90;;;;;;5066805;28;20028;-57
2024/01/29 01:02:42;;;;;;;0.00;0.00;;;7.60;99.90;;;;;;5062330;28;20037;-55
2024/01/29 01:05:08;;;;;;;0.00;0.00;;;7.50;99.90;;;;;;5065955;28;20108;-57
2024/01/29 01:07:33;;;;;;;0.00;0.00;;;7.50;99.90;;;;;;5070725;28;20439;-57
2024/01/29 01:09:59;;;;;;;0.00;0.00;;;7.50;99.90;;;;;;5069879;28;20086;-57
2024/01/29 01:12:25;;;;;;;0.00;0.00;;;7.50;99.90;;;;;;5059821;28;20033;-57
2024/01/29 01:14:50;;;;;;;0.00;0.00;;;7.50;99.90;;;;;;5061714;28;20032;-56
2024/01/29 01:17:16;;;;;;;0.00;0.00;;;7.50;99.90;;;;;;5049437;28;20251;-58
2024/01/29 01:19:42;;;;;;;0.00;0.00;;;7.50;99.90;;;;;;5044081;28;20070;-58
2024/01/29 01:22:08;;;;;;;0.00;0.00;;;7.50;99.90;;;;;;5059078;28;20070;-57
2024/01/29 01:24:33;;;;;;;0.00;0.00;;;7.50;99.90;;;;;;5060354;28;20404;-55
2024/01/29 01:26:59;;;;;;;0.00;0.00;;;7.40;99.90;;;;;;5060419;28;20394;-58
2024/01/29 01:29:24;;;;;;;0.00;0.00;;;7.40;99.90;;;;;;5062714;28;20024;-57
2024/01/29 01:31:50;;;;;;;0.00;0.00;;;7.40;99.90;;;;;;5065988;28;20045;-56
2024/01/29 01:34:15;;;;;;;0.00;0.00;;;8.80;99.90;;;;;;5067172;28;20361;-57
2024/01/29 01:36:41;;;;;;;0.00;0.00;;;7.30;99.90;;;;;;5062307;28;20325;-56
2024/01/29 01:39:08;;;;;;;0.00;0.00;;;7.40;99.90;;;;;;5066616;28;20076;-57
2024/01/29 01:41:34;;;;;;;0.00;0.00;;;7.40;99.90;;;;;;5042825;28;20029;-57
2024/01/29 01:43:59;;;;;;;0.00;0.00;;;7.40;99.90;;;;;;5064875;28;20064;-57
2024/01/29 01:46:25;;;;;;;0.00;0.00;;;7.20;99.90;;;;;;5064094;28;20602;-57
2024/01/29 01:48:53;;;;;;;0.00;0.00;;;7.30;99.90;;;;;;5065666;28;20457;-56
2024/01/29 01:51:22;;;;;;;0.00;0.00;;;7.30;99.90;;;;;;5064989;28;20032;-57
2024/01/29 01:53:52;;;;;;;0.00;0.00;;;7.20;99.90;;;;;;5064064;28;20024;-58
2024/01/29 01:56:18;;;;;;;0.00;0.00;;;7.40;99.90;;;;;;5063997;28;20465;-57
2024/01/29 01:58:44;;;;;;;0.00;0.00;;;7.10;99.90;;;;;;5062976;28;20111;-57
2024/01/29 02:01:12;;;;;;;0.00;0.00;;;7.30;99.90;;;;;;5059988;28;20067;-57
2024/01/29 02:03:39;;;;;;;0.00;0.00;;;7.20;99.90;;;;;;5061017;28;20531;-58
2024/01/29 02:06:06;;;;;;;0.00;0.00;;;7.70;99.90;;;;;;5063127;28;20024;-57
2024/01/29 02:08:31;;;;;;;0.00;0.00;;;7.20;99.90;;;;;;5066840;28;20448;-57
2024/01/29 02:11:00;;;;;;;0.00;0.00;;;7.40;99.90;;;;;;5064580;28;20020;-57
2024/01/29 02:13:25;;;;;;;0.00;0.00;;;7.40;99.90;;;;;;5064695;28;20086;-57
2024/01/29 02:15:51;;;;;;;0.00;0.00;;;7.30;99.90;;;;;;5066448;28;20025;-57
2024/01/29 02:18:16;;;;;;;0.00;0.00;;;7.40;99.90;;;;;;5066179;28;20025;-57
2024/01/29 02:20:42;;;;;;;0.00;0.00;;;7.40;99.90;;;;;;5066884;28;20044;-56
2024/01/29 02:23:08;;;;;;;0.00;0.00;;;7.20;99.90;;;;;;5066148;28;20048;-57
2024/01/29 02:25:33;;;;;;;0.00;0.00;;;7.20;99.90;;;;;;5067057;28;20127;-56
2024/01/29 02:27:59;;;;;;;0.00;0.00;;;7.20;99.90;;;;;;5068654;28;20017;-57
2024/01/29 02:30:24;;;;;;;0.00;0.00;;;7.00;99.90;;;;;;5068974;28;20033;-57
2024/01/29 02:32:50;;;;;;;0.00;0.00;;;7.20;99.90;;;;;;5063926;28;20040;-57
2024/01/29 02:35:16;;;;;;;0.00;0.00;;;7.20;99.90;;;;;;5068810;28;20032;-56
2024/01/29 02:37:41;;;;;;;0.00;0.00;;;7.30;99.90;;;;;;5050128;28;20032;-55
2024/01/29 02:40:07;;;;;;;0.00;0.00;;;7.30;99.90;;;;;;5064113;28;20124;-57
2024/01/29 02:42:33;;;;;;;0.00;0.00;;;7.20;99.90;;;;;;5048244;28;20020;-58
2024/01/29 02:44:59;;;;;;;0.00;0.00;;;7.20;99.90;;;;;;5064499;28;20051;-56
2024/01/29 02:47:24;;;;;;;0.00;0.00;;;7.10;99.90;;;;;;5069980;28;20025;-58
2024/01/29 02:49:50;;;;;;;0.00;0.00;;;7.20;99.90;;;;;;5068105;28;20032;-57
2024/01/29 02:52:16;;;;;;;0.00;0.00;;;7.20;99.90;;;;;;5067573;28;20024;-56
2024/01/29 02:54:41;;;;;;;0.00;0.00;;;7.20;99.90;;;;;;5066813;28;20027;-56
2024/01/29 02:57:07;;;;;;;0.00;0.00;;;7.20;99.90;;;;;;5064937;28;20040;-58
2024/01/29 02:59:33;;;;;;;0.00;0.00;;;7.20;99.90;;;;;;5072892;28;20035;-56
2024/01/29 03:01:59;;;;;;;0.00;0.00;;;7.20;99.90;;;;;;5069363;28;20228;-57
2024/01/29 03:04:25;;;;;;;0.00;0.00;;;7.20;99.90;;;;;;5066677;28;20399;-58
2024/01/29 03:06:51;;;;;;;0.00;0.00;;;7.30;99.90;;;;;;5065879;28;20116;-57
2024/01/29 03:09:17;;;;;;;0.00;0.00;;;7.20;99.90;;;;;;5068621;28;20035;-57
2024/01/29 03:11:42;;;;;;;0.00;0.00;;;7.20;99.90;;;;;;5065557;28;20075;-56
2024/01/29 03:14:08;;;;;;;0.00;0.00;;;7.10;99.90;;;;;;5070783;28;20020;-57
2024/01/29 03:16:34;;;;;;;0.00;0.00;;;7.10;99.90;;;;;;5065142;28;20424;-58
2024/01/29 03:19:00;;;;;;;0.00;0.00;;;7.00;99.90;;;;;;5064880;28;20392;-59
2024/01/29 03:21:28;;;;;;;0.00;0.00;;;7.20;99.90;;;;;;5066665;28;20028;-59
2024/01/29 03:23:56;;;;;;;0.00;0.00;;;7.10;99.90;;;;;;5070371;28;20085;-59
2024/01/29 03:26:22;;;;;;;0.00;0.00;;;7.10;99.90;;;;;;5064492;28;20074;-57
2024/01/29 03:28:48;;;;;;;0.00;0.00;;;7.10;99.90;;;;;;5064867;28;20111;-57
2024/01/29 03:31:14;;;;;;;0.00;0.00;;;7.00;99.90;;;;;;5068270;28;20151;-56
2024/01/29 03:33:39;;;;;;;0.00;0.00;;;6.90;99.90;;;;;;5065208;28;20491;-57
2024/01/29 03:36:06;;;;;;;0.00;0.00;;;7.20;99.90;;;;;;5070815;28;20040;-58
2024/01/29 03:38:32;;;;;;;0.00;0.00;;;7.00;99.90;;;;;;5063321;28;20090;-56
2024/01/29 03:40:58;;;;;;;0.00;0.00;;;7.60;99.90;;;;;;5059298;28;20514;-56
2024/01/29 03:43:24;;;;;;;0.00;0.00;;;7.00;99.90;;;;;;5069580;28;20032;-58
2024/01/29 03:45:51;;;;;;;0.00;0.00;;;7.10;99.90;;;;;;5063312;28;20036;-57
2024/01/29 03:48:16;;;;;;;0.00;0.00;;;6.80;99.90;;;;;;5048133;28;20426;-56
2024/01/29 03:50:43;;;;;;;0.00;0.00;;;6.80;99.90;;;;;;5070211;28;20032;-57
2024/01/29 03:53:09;;;;;;;0.00;0.00;;;6.60;99.90;;;;;;5064895;28;20043;-57
2024/01/29 03:55:35;;;;;;;0.00;0.00;;;6.70;99.90;;;;;;5063661;28;20033;-56
2024/01/29 03:58:00;;;;;;;0.00;0.00;;;6.50;99.90;;;;;;5064014;28;20033;-58
2024/01/29 04:00:26;;;;;;;0.00;0.00;;;6.70;99.90;;;;;;5064953;28;20039;-57
2024/01/29 04:02:52;;;;;;;0.00;0.00;;;6.70;99.90;;;;;;5063532;28;20105;-57
2024/01/29 04:05:18;;;;;;;0.00;0.00;;;6.60;99.90;;;;;;5063317;28;20020;-58
2024/01/29 04:07:47;;;;;;;0.00;0.00;;;6.60;99.90;;;;;;5052036;28;20674;-57
2024/01/29 04:10:13;;;;;;;0.00;0.00;;;6.60;99.90;;;;;;5063557;28;20458;-57
2024/01/29 04:12:39;;;;;;;0.00;0.00;;;6.60;99.90;;;;;;5065859;28;20029;-57
2024/01/29 04:15:05;;;;;;;0.00;0.00;;;6.50;99.90;;;;;;5043994;28;20032;-58
2024/01/29 04:17:30;;;;;;;0.00;0.00;;;6.50;99.90;;;;;;5067041;28;20032;-57
2024/01/29 04:19:56;;;;;;;0.00;0.00;;;6.40;99.90;;;;;;5063433;28;20035;-57
2024/01/29 04:22:21;;;;;;;0.00;0.00;;;6.50;99.90;;;;;;5064487;28;20674;-57
2024/01/29 04:24:47;;;;;;;0.00;0.00;;;6.60;99.90;;;;;;5046574;28;20032;-60
2024/01/29 04:27:13;;;;;;;0.00;0.00;;;6.50;99.90;;;;;;5062746;28;20063;-58
2024/01/29 04:29:38;;;;;;;0.00;0.00;;;6.50;99.90;;;;;;5065666;28;20467;-59
2024/01/29 04:32:04;;;;;;;0.00;0.00;;;6.50;99.90;;;;;;5067742;28;20139;-59
2024/01/29 04:34:30;;;;;;;0.00;0.00;;;6.50;99.90;;;;;;5066856;28;20115;-58
2024/01/29 04:36:55;;;;;;;0.00;0.00;;;6.40;99.90;;;;;;5063590;28;20628;-58
2024/01/29 04:39:21;;;;;;;0.00;0.00;;;6.50;99.90;;;;;;5063219;28;20040;-58
2024/01/29 04:41:46;;;;;;;0.00;0.00;;;6.50;99.90;;;;;;5061087;28;20029;-59
2024/01/29 04:44:14;;;;;;;0.00;0.00;;;6.50;99.90;;;;;;5061109;28;20345;-59
2024/01/29 04:46:40;;;;;;;0.00;0.00;;;6.50;99.90;;;;;;5063772;28;20039;-58
2024/01/29 04:49:05;;;;;;;0.00;0.00;;;6.50;99.90;;;;;;5061521;28;20028;-58
2024/01/29 04:51:31;;;;;;;0.00;0.00;;;6.50;99.90;;;;;;5065309;28;20021;-59
2024/01/29 04:53:57;;;;;;;0.00;0.00;;;6.40;99.90;;;;;;5065817;28;20025;-59
2024/01/29 04:56:22;;;;;;;0.00;0.00;;;6.40;99.90;;;;;;5062226;28;20110;-58
2024/01/29 04:58:48;;;;;;;0.00;0.00;;;6.50;99.90;;;;;;5060207;28;20127;-59
2024/01/29 05:01:14;;;;;;;0.00;0.00;;;6.40;99.90;;;;;;5064028;28;20067;-58
2024/01/29 05:03:39;;;;;;;0.00;0.00;;;6.50;99.90;;;;;;5063364;28;20021;-59
2024/01/29 05:06:06;;;;;;;0.00;0.00;;;6.40;99.90;;;;;;5062851;28;20168;-59
2024/01/29 05:08:31;;;;;;;0.00;0.00;;;6.30;99.90;;;;;;5063265;28;20032;-59
2024/01/29 05:10:57;;;;;;;0.00;0.00;;;6.40;99.90;;;;;;5059931;28;20075;-58
2024/01/29 05:13:22;;;;;;;0.00;0.00;;;6.30;99.90;;;;;;5063920;28;20084;-58
2024/01/29 05:15:48;;;;;;;0.00;0.00;;;6.30;99.90;;;;;;5065488;28;20424;-58
2024/01/29 05:18:13;;;;;;;0.00;0.00;;;6.30;99.90;;;;;;5066333;28;20020;-60
2024/01/29 05:20:39;;;;;;;0.00;0.00;;;6.40;99.90;;;;;;5060111;28;20104;-59
2024/01/29 05:23:05;;;;;;;0.00;0.00;;;6.30;99.90;;;;;;5061884;28;20098;-59
2024/01/29 05:25:31;;;;;;;0.00;0.00;;;6.30;99.90;;;;;;5046674;28;20024;-58
2024/01/29 05:27:57;;;;;;;0.00;0.00;;;6.20;99.90;;;;;;5045202;28;20020;-59
2024/01/29 05:30:23;;;;;;;0.00;0.00;;;6.20;99.90;;;;;;5043894;28;20074;-58
2024/01/29 05:32:48;;;;;;;0.00;0.00;;;6.10;99.90;;;;;;5061165;28;20044;-59
2024/01/29 05:35:14;;;;;;;0.00;0.00;;;6.20;99.90;;;;;;5064501;28;20033;-58
2024/01/29 05:37:39;;;;;;;0.00;0.00;;;6.20;99.90;;;;;;5066700;28;20134;-58
2024/01/29 05:40:06;;;;;;;0.00;0.00;;;6.30;99.90;;;;;;5063065;28;20040;-59
2024/01/29 05:42:31;;;;;;;0.00;0.00;;;6.10;99.90;;;;;;5061407;28;20032;-59
2024/01/29 05:44:57;;;;;;;0.00;0.00;;;6.10;99.90;;;;;;5045411;28;20037;-57
2024/01/29 05:47:23;;;;;;;0.00;0.00;;;6.20;99.90;;;;;;5062523;28;20035;-58
2024/01/29 05:49:49;;;;;;;0.00;0.00;;;6.20;99.90;;;;;;5063703;28;20024;-57
2024/01/29 05:52:14;;;;;;;0.00;0.00;;;6.20;99.90;;;;;;5061569;28;20535;-57
2024/01/29 05:54:40;;;;;;;0.00;0.00;;;6.20;99.90;;;;;;5060031;28;20032;-57
2024/01/29 05:57:10;;;;;;;0.00;0.00;;;6.10;99.90;;;;;;5064439;28;20044;-57
2024/01/29 05:59:35;;;;;;;0.00;0.00;;;6.10;99.90;;;;;;5060447;28;20021;-56
2024/01/29 06:02:01;;;;;;;0.00;0.00;;;6.10;99.90;;;;;;5063472;28;20032;-57
2024/01/29 06:04:26;;;;;;;0.00;0.00;;;6.20;99.90;;;;;;5065514;28;20368;-56
2024/01/29 06:06:52;;;;;;;0.00;0.00;;;6.10;99.90;;;;;;5062640;28;20139;-55
2024/01/29 06:09:18;;;;;;;0.00;0.00;;;6.00;99.90;;;;;;5064227;28;20017;-57
2024/01/29 06:11:43;;;;;;;0.00;0.00;;;6.10;99.90;;;;;;5061924;28;20043;-57
2024/01/29 06:14:09;;;;;;;0.00;0.00;;;6.00;99.90;;;;;;5064593;28;20052;-58
2024/01/29 06:16:34;;;;;;;0.00;0.00;;;6.10;99.90;;;;;;5059821;28;20075;-56
2024/01/29 06:19:00;;;;;;;0.00;0.00;;;6.10;99.90;;;;;;5063993;28;20353;-56
2024/01/29 06:21:26;;;;;;;0.00;0.00;;;6.00;99.90;;;;;;5063998;28;20459;-57
2024/01/29 06:23:51;;;;;;;0.00;0.00;;;6.00;99.90;;;;;;5058364;28;20063;-57
2024/01/29 06:26:17;;;;;;;0.00;0.00;;;6.10;99.90;;;;;;5059717;28;20475;-57
2024/01/29 06:28:43;;;;;;;0.00;0.00;;;6.00;99.90;;;;;;5058546;28;20476;-58
2024/01/29 06:31:09;;;;;;;0.00;0.00;;;5.90;99.90;;;;;;5063907;28;20089;-57
2024/01/29 06:33:35;;;;;;;0.00;0.00;;;;;;;;;;5063405;28;20040;-57
2024/01/29 06:36:02;;;;;;;0.00;0.00;;;;;;;;;;5061603;28;20060;-57
2024/01/29 06:38:28;;;;;;;0.00;0.00;;;;;;;;;;5062013;28;20032;-57
2024/01/29 06:40:54;;;;;;;0.00;0.00;;;;;;;;;;5063846;28;20219;-58
2024/01/29 06:43:20;;;;;;;0.00;0.00;;;;;;;;;;5059793;28;20107;-57
2024/01/29 06:45:46;;;;;;;0.00;0.00;;;;;;;;;;5062285;28;20385;-57
2024/01/29 06:48:12;;;;;;;0.00;0.00;;;;;;;;;;5063464;28;20115;-57
2024/01/29 06:50:40;;;;;;;0.00;0.00;;;;;;;;;;5061908;28;20029;-57
2024/01/29 06:53:05;;;;;;;0.00;0.00;;;5.90;99.90;;;;;;5066913;28;20028;-56
2024/01/29 06:55:31;;;;;;;0.00;0.00;;;5.80;99.90;;;;;;5051215;28;20028;-58
2024/01/29 06:57:57;;;;;;;0.00;0.00;;;5.80;99.90;;;;;;5064341;28;20036;-59
2024/01/29 07:00:22;;;;;;;0.00;0.00;;;5.80;99.90;;;;;;5067899;28;20047;-58
2024/01/29 07:02:48;;;;;;;0.00;0.00;;;5.60;99.90;;;;;;5061397;28;20094;-59
2024/01/29 07:05:15;;;;;;;0.00;0.00;;;5.70;99.90;;;;;;5066485;28;20525;-59
2024/01/29 07:07:40;;;;;;;0.00;0.00;;;5.70;99.90;;;;;;5052675;28;20020;-59
2024/01/29 07:10:06;;;;;;;0.00;0.00;;;5.70;99.90;;;;;;5064629;28;20141;-59
2024/01/29 07:12:32;;;;;;;0.00;0.00;;;5.70;99.90;;;;;;5067419;28;20032;-59
2024/01/29 07:14:57;;;;;;;0.00;0.00;;;5.60;99.90;;;;;;5062497;28;20024;-59
2024/01/29 07:17:23;;;;;;;0.00;0.00;;;5.70;99.90;;;;;;5063901;28;20071;-59
2024/01/29 07:19:51;;;;;;;0.00;0.00;;;5.80;99.90;;;;;;5060894;28;20028;-59
2024/01/29 07:22:21;;;;;;;0.00;0.00;;;5.70;99.90;;;;;;5063279;28;20032;-58
2024/01/29 07:24:48;;;;;;;0.00;0.00;;;5.70;99.90;;;;;;5063532;28;20024;-58
2024/01/29 07:27:17;;;;;;;0.00;0.00;;;5.70;99.90;;;;;;5062316;28;20040;-59
2024/01/29 07:29:43;;;;;;;0.00;0.00;;;5.60;99.90;;;;;;5065753;28;20039;-59
2024/01/29 07:32:08;;;;;;;0.00;0.00;;;5.80;99.90;;;;;;5044328;28;20262;-58
2024/01/29 07:34:34;;;;;;;0.00;0.00;;;6.00;99.90;;;;;;5065597;28;20056;-59
2024/01/29 07:36:59;;;;;;;0.00;0.00;;;6.00;99.90;;;;;;5063587;28;20028;-59
2024/01/29 07:39:25;;;;;;;0.00;0.00;;;6.00;99.90;;;;;;5070393;28;20080;-58
2024/01/29 07:41:51;;;;;;;0.00;0.00;;;5.90;99.90;;;;;;5065330;28;20028;-59
2024/01/29 07:44:17;;;;;;;0.00;0.00;;;5.70;99.90;;;;;;5047675;28;20064;-58
2024/01/29 07:46:42;;;;;;;0.00;0.00;;;5.70;99.90;;;;;;5066405;28;20041;-59
2024/01/29 07:49:08;;;;;;;0.00;0.00;;;5.70;99.90;;;;;;5069737;28;20396;-59
2024/01/29 07:51:33;;;;;;;0.00;0.00;;;5.80;99.90;;;;;;5066942;28;20020;-59
2024/01/29 07:53:59;;;;;;;0.00;0.00;;;5.80;99.90;;;;;;5062619;28;20024;-59
2024/01/29 07:56:25;;;;;;;0.00;0.00;;;5.80;99.90;;;;;;5061315;28;20028;-57
2024/01/29 07:58:51;;;;;;;0.00;0.00;;;5.80;99.90;;;;;;5057123;28;20328;-58
2024/01/29 08:01:16;;;;;;;0.00;0.00;;;5.90;99.90;;;;;;5060029;28;20097;-58
2024/01/29 08:03:43;;;;;;;0.00;0.00;;;5.90;99.90;;;;;;5061667;28;20364;-59
2024/01/29 08:06:09;;;;;;;0.00;0.00;;;6.00;99.90;;;;;;5045774;28;20093;-58
2024/01/29 08:08:36;;;;;;;0.00;0.00;;;6.00;99.90;;;;;;5064386;28;20032;-59
2024/01/29 08:11:02;;;;;;;0.00;0.00;;;6.00;99.90;;;;;;5056015;28;20020;-58
2024/01/29 08:13:27;;;;;;;0.00;0.00;;;6.00;99.90;;;;;;5062908;28;20499;-58
2024/01/29 08:15:54;;;;;;;0.00;0.00;;;6.10;99.90;;;;;;5066237;28;20491;-58
2024/01/29 08:18:19;;;;;;;0.00;0.00;;;6.10;99.90;;;;;;5064023;28;20052;-57
2024/01/29 08:20:45;;;;;;;0.00;0.00;;;6.10;99.90;;;;;;5061927;28;20165;-58
2024/01/29 08:23:11;;;;;;;0.00;0.00;;;6.20;99.90;;;;;;5063200;28;20025;-58
2024/01/29 08:25:37;;;;;;;0.00;0.00;;;6.30;99.90;;;;;;5060306;28;20035;-58
2024/01/29 08:28:02;;;;;;;0.00;0.00;;;6.30;99.90;;;;;;5065047;28;20167;-58
2024/01/29 08:30:28;;;;;;;0.00;0.00;;;6.40;99.90;;;;;;5060710;28;20028;-58
2024/01/29 08:32:54;;;;;;;0.00;0.00;;;6.40;99.90;;;;;;5047075;28;20039;-58
2024/01/29 08:35:19;;;;;;;0.00;0.00;;;6.50;99.90;;;;;;5065731;28;20081;-58
2024/01/29 08:37:45;;;;;;;0.00;0.00;;;6.50;99.90;;;;;;5064886;28;20111;-57
2024/01/29 08:40:11;;;;;;;0.00;0.00;;;6.50;99.90;;;;;;5061917;28;20101;-58
2024/01/29 08:42:36;;;;;;;0.00;0.00;;;6.50;99.90;;;;;;5035660;28;20028;-56
2024/01/29 08:45:03;;;;;;;0.00;0.00;;;6.50;99.90;;;;;;5060708;28;20307;-55
2024/01/29 08:47:28;;;;;;;0.00;0.00;;;6.60;99.90;;;;;;5065475;28;20020;-54
2024/01/29 08:49:54;;;;;;;0.00;0.00;;;6.60;99.90;;;;;;5064603;28;20370;-54
2024/01/29 08:52:20;;;;;;;0.00;0.00;;;6.70;99.90;;;;;;5063422;28;20119;-55
2024/01/29 08:54:45;;;;;;;0.00;0.00;;;6.70;99.90;;;;;;5063264;28;20056;-54
2024/01/29 08:57:11;;;;;;;0.00;0.00;;;6.80;99.90;;;;;;5061393;28;20079;-55
2024/01/29 08:59:41;;;;;;;0.00;0.00;;;6.80;99.90;;;;;;5058793;28;20040;-54
2024/01/29 09:02:07;;;;;;;0.00;0.00;;;6.90;99.90;;;;;;5064659;28;20036;-55
2024/01/29 09:04:33;;;;;;;0.00;0.00;;;6.90;99.90;;;;;;5061539;28;20094;-56
2024/01/29 09:06:58;;;;;;;0.00;0.00;;;6.90;99.90;;;;;;5058206;28;20056;-55
2024/01/29 09:09:24;;;;;;;0.00;0.00;;;6.90;99.90;;;;;;5060194;28;20322;-55
2024/01/29 09:11:51;;;;;;;0.00;0.00;;;6.90;99.90;;;;;;5054208;28;20039;-56
2024/01/29 09:14:17;;;;;;;0.00;0.00;;;7.00;99.90;;;;;;5062812;28;20035;-56
2024/01/29 09:16:43;;;;;;;0.00;0.00;;;7.00;99.90;;;;;;5061466;28;20032;-56
2024/01/29 09:19:09;;;;;;;0.00;0.00;;;7.00;99.90;;;;;;5058667;28;20033;-57
2024/01/29 09:21:36;;;;;;;0.00;0.00;;;7.10;99.90;;;;;;5059254;28;20020;-56
2024/01/29 09:24:03;;;;;;;0.00;0.00;;;7.20;99.90;;;;;;5061923;28;20381;-54
2024/01/29 09:26:28;;;;;;;0.00;0.00;;;7.20;99.90;;;;;;5062417;28;20032;-58
2024/01/29 09:28:54;;;;;;;0.00;0.00;;;7.30;99.90;;;;;;5059232;28;20704;-58
2024/01/29 09:31:19;;;;;;;0.00;0.00;;;7.40;99.90;;;;;;5058931;28;20035;-58
2024/01/29 09:33:45;;;;;;;0.00;0.00;;;7.40;99.90;;;;;;5057652;28;20037;-57
2024/01/29 09:36:10;;;;;;;0.00;0.00;;;7.50;99.90;;;;;;5063115;28;20032;-56
2024/01/29 09:38:36;;;;;;;0.00;0.00;;;7.60;99.90;;;;;;5059832;28;20582;-57
2024/01/29 09:41:04;;;;;;;0.00;0.00;;;7.60;99.90;;;;;;5058000;28;20047;-56
2024/01/29 09:43:31;;;;;;;0.00;0.00;;;7.70;99.90;;;;;;5061222;28;20471;-57
2024/01/29 09:45:57;;;;;;;0.00;0.00;;;7.70;99.90;;;;;;5060465;28;20123;-58
2024/01/29 09:48:23;;;;;;;0.00;0.00;;;7.70;99.90;;;;;;5062741;28;20325;-59
2024/01/29 09:50:50;;;;;;;0.00;0.00;;;7.80;99.90;;;;;;5057205;28;20028;-56
2024/01/29 09:53:20;;;;;;;0.00;0.00;;;7.80;99.90;;;;;;5061904;28;20422;-58
2024/01/29 09:55:47;;;;;;;0.00;0.00;;;7.90;99.90;;;;;;5051332;28;20100;-56
2024/01/29 09:58:12;;;;;;;0.00;0.00;;;7.90;99.90;;;;;;5061893;28;20043;-57
2024/01/29 10:00:38;;;;;;;0.00;0.00;;;8.00;99.90;;;;;;5063676;28;20392;-57
2024/01/29 10:03:12;;;;;;;0.00;0.00;;;8.10;99.90;;;;;;5037633;28;20663;-56
2024/01/29 10:05:38;;;;;;;0.00;0.00;;;8.10;99.90;;;;;;5030731;28;20039;-58
2024/01/29 10:08:03;;;;;;;0.00;0.00;;;8.10;99.90;;;;;;5059468;28;20029;-58
2024/01/29 10:10:29;;;;;;;0.00;0.00;;;8.10;99.90;;;;;;5063644;28;20021;-57
2024/01/29 10:13:08;;;;;;;0.00;0.00;;;8.20;99.90;;;;;;5062794;28;20080;-57
2024/01/29 10:15:34;;;;;;;0.00;0.00;;;8.20;99.90;;;;;;5060563;28;20028;-58
2024/01/29 10:18:00;;;;;;;0.00;0.00;;;8.30;99.90;;;;;;5060243;28;20036;-58
2024/01/29 10:20:26;;;;;;;0.00;0.00;;;8.40;99.90;;;;;;5059238;28;20604;-58
2024/01/29 10:22:59;;;;;;;0.00;0.00;;;8.40;99.90;;;;;;5040817;28;20996;-57
2024/01/29 10:25:25;;;;;;;0.00;0.00;;;8.40;99.90;;;;;;5024663;28;20590;-57
2024/01/29 10:27:50;;;;;;;0.00;0.00;;;8.50;99.90;;;;;;5035439;28;20075;-58
2024/01/29 10:30:16;;;;;;;0.00;0.00;;;8.50;99.90;;;;;;5035917;28;21668;-58
2024/01/29 10:32:41;;;;;;;0.00;0.00;;;8.60;99.90;;;;;;5046985;28;20028;-58
2024/01/29 10:35:07;;;;;;;0.00;0.00;;;8.60;99.90;;;;;;5063630;28;20029;-55
2024/01/29 10:37:33;;;;;;;0.00;0.00;;;8.70;99.90;;;;;;5065253;28;20016;-56
2024/01/29 10:40:02;;;;;;;0.10;0.10;;;8.70;99.90;;;;;;5064457;28;20399;-56
2024/01/29 10:42:28;;;;;;;0.55;0.20;;;8.70;99.90;;;;;;5064706;28;20020;-56
2024/01/29 10:44:58;;;;;;;0.05;0.03;;;8.70;99.90;;;;;;5064126;28;20786;-56
2024/01/29 10:47:29;;;;;;;0.20;0.20;;;8.70;99.90;;;;;;5066607;28;20059;-55
2024/01/29 10:49:56;;;;;;;0.32;0.32;;;8.80;99.90;;;;;;5061560;28;20478;-56
2024/01/29 10:52:23;;;;;;;0.00;0.00;;;8.90;99.90;;;;;;5063934;28;20463;-55
2024/01/29 10:54:50;;;;;;;0.63;0.32;;;8.90;99.90;;;;;;5061204;28;20531;-55
2024/01/29 10:57:18;;;;;;;0.00;0.00;;;8.90;99.90;;;;;;5064531;28;20392;-56
2024/01/29 10:59:45;;;;;;;0.00;0.00;;;9.00;99.90;;;;;;5042432;28;20265;-55
2024/01/29 11:02:16;;;;;;;4.15;1.75;;;9.00;99.90;;;;;;5062940;28;20469;-56
2024/01/29 11:04:42;;;;;;;0.00;0.00;;;9.10;99.90;;;;;;5062348;28;20052;-56
2024/01/29 11:07:15;;;;;;;0.43;0.10;;;9.10;99.90;;;;;;5062835;28;20111;-56
2024/01/29 11:09:58;;;;;;;0.00;0.00;;;9.20;99.90;;;;;;5065112;28;20368;-55
2024/01/29 11:12:25;;;;;;;0.10;0.10;;;9.20;99.90;;;;;;5060689;28;20029;-56
2024/01/29 11:15:01;;;;;;;3.90;1.10;;;9.20;99.90;;;;;;5045161;28;20086;-57
2024/01/29 11:17:27;;;;;;;0.00;0.00;;;9.30;99.90;;;;;;5030265;28;20738;-56
2024/01/29 11:19:53;;;;;;;0.00;0.00;;;9.30;99.90;;;;;;5060945;28;20036;-55
2024/01/29 11:22:19;;;;;;;0.95;0.28;;;9.40;99.90;;;;;;5064722;28;20495;-56
2024/01/29 11:24:44;;;;;;;0.00;0.00;;;9.40;99.90;;;;;;5050633;28;20467;-55
2024/01/29 11:27:12;;;;;;;1.00;0.75;;;9.40;99.90;;;;;;5061301;28;20553;-56
2024/01/29 11:29:38;;;;;;;0.00;0.00;;;9.50;99.90;;;;;;5060697;28;20509;-56
2024/01/29 11:32:07;;;;;;;0.00;0.00;;;9.50;99.90;;;;;;5062852;28;20059;-55
2024/01/29 11:34:32;;;;;;;0.00;0.00;;;9.50;99.90;;;;;;5064326;28;20111;-56
2024/01/29 11:36:58;;;;;;;0.00;0.00;;;9.50;99.90;;;;;;5063178;28;20035;-56
2024/01/29 11:39:24;;;;;;;0.10;0.10;;;9.60;99.90;;;;;;5042720;28;20044;-54
2024/01/29 11:41:52;;;;;;;0.77;0.65;;;9.70;99.90;;;;;;5060581;28;20032;-55
2024/01/29 11:44:18;;;;;;;0.10;0.10;;;9.70;99.90;;;;;;5063515;28;20048;-56
2024/01/29 11:46:44;;;;;;;0.00;0.00;;;9.70;99.90;;;;;;5060013;28;20115;-56
2024/01/29 11:49:09;;;;;;;0.22;0.22;;;9.70;99.90;;;;;;5065897;28;20638;-57
2024/01/29 11:51:36;;;;;;;0.00;0.00;;;9.80;99.90;;;;;;5063012;28;20395;-55
2024/01/29 11:54:02;;;;;;;0.00;0.00;;;9.80;99.90;;;;;;5058284;28;20047;-56
2024/01/29 11:56:28;;;;;;;0.00;0.00;;;9.80;99.90;;;;;;5040466;28;20039;-55
2024/01/29 11:59:04;;;;;;;0.08;0.08;;;9.90;99.90;;;;;;5061448;28;20319;-56
2024/01/29 12:01:33;;;;;;;0.00;0.00;;;9.90;99.90;;;;;;5061371;28;20055;-56
2024/01/29 12:03:59;;;;;;;0.00;0.00;;;9.90;99.90;;;;;;5065592;28;20608;-55
2024/01/29 12:06:25;;;;;;;0.25;0.25;;;9.90;99.90;;;;;;5063119;28;20055;-57
2024/01/29 12:08:56;;;;;;;0.00;0.00;;;9.90;99.90;;;;;;5063024;28;20028;-55
2024/01/29 12:11:22;;;;;;;0.25;0.25;;;10.00;99.90;;;;;;5066851;28;20036;-55
2024/01/29 12:13:49;;;;;;;0.10;0.10;;;10.00;99.90;;;;;;5065087;28;20419;-56
2024/01/29 12:16:16;;;;;;;0.28;0.28;;;10.00;99.90;;;;;;5067145;28;20471;-55
2024/01/29 12:18:42;;;;;;;0.00;0.00;;;10.00;99.90;;;;;;5057355;28;20088;-56
2024/01/29 12:21:07;;;;;;;0.00;0.00;;;10.10;99.90;;;;;;5060349;28;20041;-56
2024/01/29 12:23:33;;;;;;;0.20;0.20;;;10.20;99.90;;;;;;5060605;28;20159;-57
2024/01/29 12:25:59;;;;;;;0.00;0.00;;;10.20;99.90;;;;;;5064656;28;20032;-56
2024/01/29 12:28:25;;;;;;;0.00;0.00;;;10.30;99.90;;;;;;5067088;28;20024;-57
2024/01/29 12:30:52;;;;;;;0.00;0.00;;;10.40;99.90;;;;;;5058865;28;20086;-53
2024/01/29 12:33:18;;;;;;;0.10;0.10;;;10.30;99.90;;;;;;5062694;28;20426;-55
2024/01/29 12:35:44;;;;;;;0.00;0.00;;;10.40;99.90;;;;;;5061363;28;20488;-57
2024/01/29 12:38:13;;;;;;;0.00;0.00;;;10.50;99.90;;;;;;5060498;28;20164;-54
2024/01/29 12:40:41;;;;;;;0.03;0.03;;;10.50;99.90;;;;;;5058384;28;20085;-56
2024/01/29 12:43:09;;;;;;;0.00;0.00;;;10.50;99.90;;;;;;5061869;28;20547;-55
2024/01/29 12:45:36;;;;;;;0.10;0.10;;;10.50;99.90;;;;;;5060299;28;20036;-56
2024/01/29 12:48:12;;;;;;;0.00;0.00;;;10.60;99.90;;;;;;5061968;28;20093;-57
2024/01/29 12:50:40;;;;;;;0.00;0.00;;;10.60;99.90;;;;;;5049135;28;20073;-56
2024/01/29 12:53:10;;;;;;;0.00;0.00;;;10.70;99.90;;;;;;5060025;28;20496;-55